Time;durP1;ratioP1;P1;durP2;ratioP2;P2;SDS_P1;SDS_P2;PMS_P1;PMS_P2;Temp;Humidity;BMP_temperature;BMP_pressure;BME280_temperature;BME280_humidity;BME280_pressure;Samples;Min_cycle;Max_cycle;Signal;HPM_P1;HPM_P2
2022/02/05 00:01:22;;;;;;;7.63;1.67;;;;;;;3.37;76.40;100485.34;6276441;22;20019;-93
2022/02/05 00:04:01;;;;;;;5.05;1.35;;;;;;;3.49;77.24;100514.81;6278037;22;20087;-93
2022/02/05 00:06:42;;;;;;;6.50;1.80;;;;;;;3.36;76.91;100510.66;6276075;22;20071;-93
2022/02/05 00:15:35;;;;;;;6.85;1.88;;;;;;;3.47;76.33;100518.34;6274407;22;20007;-93
2022/02/05 00:38:39;;;;;;;6.43;1.50;;;;;;;3.22;77.67;100553.63;6272868;22;20019;-93
2022/02/05 00:41:26;;;;;;;5.70;1.77;;;;;;;3.25;78.18;100558.84;6275885;22;20024;-94
2022/02/05 00:44:04;;;;;;;4.95;1.95;;;;;;;2.96;78.78;100531.34;6274619;22;20613;-95
2022/02/05 00:46:43;;;;;;;4.95;1.70;;;;;;;2.72;79.17;100503.75;6272885;22;20027;-92
2022/02/05 00:49:14;;;;;;;2.88;1.60;;;;;;;2.79;78.32;100512.41;6271338;22;20443;-94
2022/02/05 00:51:51;;;;;;;4.95;1.75;;;;;;;2.84;79.19;100541.94;6271112;22;20455;-95
2022/02/05 00:54:24;;;;;;;9.75;2.28;;;;;;;2.97;79.14;100563.59;6271308;22;20024;-95
2022/02/05 00:59:35;;;;;;;5.78;1.80;;;;;;;2.71;80.32;100529.91;6274395;22;20020;-94
2022/02/05 01:02:18;;;;;;;;;;;;;;;;;;;;;
2022/02/05 01:04:48;;;;;;;8.00;1.70;;;;;;;2.87;79.77;100560.22;6270507;22;20609;-94
2022/02/05 01:07:14;;;;;;;6.40;1.70;;;;;;;2.77;80.42;100546.41;6275325;22;20026;-94
2022/02/05 01:09:50;;;;;;;5.00;1.83;;;;;;;2.92;80.53;100571.50;6274571;22;20741;-93
2022/02/05 01:12:19;;;;;;;7.03;1.98;;;;;;;3.03;80.06;100590.53;6273128;22;20027;-93
2022/02/05 01:14:52;;;;;;;6.88;1.67;;;;;;;3.24;79.49;100610.31;6275537;22;20027;-95
2022/02/05 01:17:32;;;;;;;5.78;1.90;;;;;;;3.12;79.74;100592.16;6275121;22;20022;-93
2022/02/05 01:22:32;;;;;;;5.45;1.70;;;;;;;3.31;79.90;100626.78;6276662;22;20018;-93
2022/02/05 01:25:00;;;;;;;7.72;2.20;;;;;;;3.05;79.24;100575.66;6273096;22;20016;-94
2022/02/05 01:27:43;;;;;;;8.23;2.10;;;;;;;3.28;79.08;100616.38;6276431;22;20023;-93
2022/02/05 01:32:42;;;;;;;5.88;2.13;;;;;;;3.18;79.35;100611.25;6278625;22;20012;-95
2022/02/05 01:35:13;;;;;;;6.07;1.92;;;;;;;3.02;79.79;100590.53;6277285;22;20066;-95
2022/02/05 01:49:28;;;;;;;5.63;1.98;;;;;;;3.02;79.33;100609.72;6290508;22;20027;-95
2022/02/05 01:57:19;;;;;;;6.25;2.00;;;;;;;3.15;80.56;100673.22;6284734;22;20039;-93
2022/02/05 02:05:51;;;;;;;4.53;1.73;;;;;;;2.90;82.13;100654.34;6279659;22;20012;-93
2022/02/05 02:14:24;;;;;;;9.90;1.95;;;;;;;2.89;82.16;100681.38;6277931;22;20026;-94
2022/02/05 02:17:47;;;;;;;;;;;;;;;2.83;82.42;100676.22;6278311;22;20086;-94
2022/02/05 02:22:31;;;;;;;7.28;2.15;;;;;;;2.51;83.10;100624.28;6279946;22;20023;-94
2022/02/05 02:25:10;;;;;;;5.97;2.00;;;;;;;2.69;83.25;100657.19;6280937;22;20023;-94
2022/02/05 02:27:49;;;;;;;7.20;2.40;;;;;;;2.81;83.20;100683.22;6280362;22;20020;-94
2022/02/05 02:30:20;;;;;;;6.60;2.20;;;;;;;2.43;83.28;100615.66;6279701;22;20070;-94
2022/02/05 02:33:00;;;;;;;6.93;2.30;;;;;;;2.45;83.65;100633.03;6279931;22;20026;-94
2022/02/05 02:35:41;;;;;;;;;;;;;;;;;;;;;
2022/02/05 02:38:15;;;;;;;6.47;2.30;;;;;;;2.45;83.95;100633.03;6278065;22;20447;-94
2022/02/05 02:41:00;;;;;;;9.45;2.60;;;;;;;2.74;84.10;100689.38;6278724;22;20018;-94
2022/02/05 02:43:53;;;;;;;6.47;2.38;;;;;;;2.58;83.17;100628.56;6276755;22;20012;-93
2022/02/05 02:46:21;;;;;;;7.68;2.35;;;;;;;2.87;83.29;100696.22;6277505;22;20071;-93
2022/02/05 02:48:51;;;;;;;9.20;3.08;;;;;;;2.51;83.72;100647.81;6278153;22;20046;-93
2022/02/05 02:57:10;;;;;;;11.95;2.97;;;;;;;2.65;83.83;100684.28;6243755;23;20027;-94
2022/02/05 02:59:58;;;;;;;7.00;2.50;;;;;;;2.61;84.13;100690.41;6221653;23;20106;-94
2022/02/05 03:02:30;;;;;;;6.95;2.72;;;;;;;2.49;84.50;100672.22;6247846;23;20055;-93
2022/02/05 03:05:12;;;;;;;6.03;2.55;;;;;;;2.72;84.93;100718.16;6158355;23;20035;-93
2022/02/05 03:07:40;;;;;;;5.50;2.55;;;;;;;2.56;84.51;100700.03;6157382;23;20453;-93
2022/02/05 03:10:14;;;;;;;7.47;2.47;;;;;;;2.61;84.13;100693.00;6154644;23;20449;-94
2022/02/05 03:12:48;;;;;;;4.57;2.40;;;;;;;2.65;83.72;100697.34;6157267;23;20021;-94
2022/02/05 03:15:20;;;;;;;8.50;2.97;;;;;;;2.40;83.74;100660.97;6152145;23;20022;-93
2022/02/05 03:18:03;;;;;;;5.10;2.60;;;;;;;2.72;84.11;100715.56;6153067;23;20018;-95
2022/02/05 03:20:35;;;;;;;9.73;2.80;;;;;;;2.65;84.23;100719.13;6155995;23;20339;-94
2022/02/05 03:23:03;;;;;;;8.93;3.08;;;;;;;2.45;84.17;100680.09;6186015;23;20016;-94
2022/02/05 03:25:34;;;;;;;6.70;2.25;;;;;;;2.62;83.82;100715.66;6246821;22;20091;-93
2022/02/05 03:28:07;;;;;;;8.27;2.50;;;;;;;2.50;83.86;100687.03;6247586;23;20028;-93
2022/02/05 03:30:35;;;;;;;8.55;2.83;;;;;;;2.75;83.44;100740.81;6247771;22;20027;-93
2022/02/05 03:33:17;;;;;;;10.43;2.97;;;;;;;2.85;83.29;100747.66;6242753;23;20083;-94
2022/02/05 03:35:45;;;;;;;6.28;3.00;;;;;;;2.46;84.04;100713.19;6255865;22;20048;-94
2022/02/05 03:38:19;;;;;;;8.07;2.80;;;;;;;2.42;83.90;100694.94;6256142;22;20012;-93
2022/02/05 03:40:51;;;;;;;6.15;2.30;;;;;;;2.40;84.59;100704.53;6248407;23;20019;-94
2022/02/05 03:43:25;;;;;;;8.70;2.50;;;;;;;2.36;83.78;100721.97;6248717;23;20020;-95
2022/02/05 03:45:53;;;;;;;6.53;3.05;;;;;;;2.75;83.91;100762.59;6242467;23;20222;-94
2022/02/05 03:48:19;;;;;;;5.25;2.38;;;;;;;2.72;83.56;100766.97;6246085;23;20530;-94
2022/02/05 03:50:46;;;;;;;9.18;2.72;;;;;;;2.35;83.45;100707.19;6248009;23;20028;-93
2022/02/05 03:53:21;;;;;;;6.82;2.75;;;;;;;2.63;83.84;100756.63;6246884;23;20102;-93
2022/02/05 03:55:48;;;;;;;7.65;2.28;;;;;;;2.47;84.10;100730.63;6267394;22;20022;-94
2022/02/05 03:58:16;;;;;;;8.60;2.50;;;;;;;2.29;83.62;100715.09;6279452;22;20046;-95
2022/02/05 04:00:45;;;;;;;12.55;3.05;;;;;;;2.47;83.87;100751.53;6282035;22;20042;-96
2022/02/05 04:03:13;;;;;;;6.60;2.42;;;;;;;2.30;84.36;100736.84;6281200;22;20098;-94
2022/02/05 04:05:42;;;;;;;6.25;2.72;;;;;;;2.50;84.82;100771.56;6273934;22;20543;-95
2022/02/05 04:08:15;;;;;;;;;;;;;;;2.62;84.71;100781.03;6277585;22;20059;-95
2022/02/05 04:10:47;;;;;;;5.30;2.42;;;;;;;2.29;84.52;100735.13;6278464;22;19926;-93
2022/02/05 04:16:24;;;;;;;6.55;2.28;;;;;;;2.17;84.63;100735.22;6277114;22;20015;-94
2022/02/05 04:19:04;;;;;;;9.43;2.60;;;;;;;2.25;85.01;100772.59;6277342;22;20019;-93
2022/02/05 04:21:46;;;;;;;6.88;2.65;;;;;;;2.20;84.93;100772.66;6278815;22;20012;-94
2022/02/05 04:24:16;;;;;;;7.97;2.38;;;;;;;2.32;85.38;100790.84;6277968;22;20284;-96
2022/02/05 04:27:02;;;;;;;6.82;2.50;;;;;;;2.08;85.64;100751.81;6249158;22;20090;-95
2022/02/05 04:29:43;;;;;;;6.93;2.50;;;;;;;2.02;85.37;100752.75;6277986;22;20039;-94
2022/02/05 04:32:13;;;;;;;10.68;3.00;;;;;;;2.04;85.65;100744.91;6276194;22;20015;-93
2022/02/05 04:34:42;;;;;;;6.30;2.75;;;;;;;2.29;85.30;100796.09;6276163;22;20012;-94
2022/02/05 04:37:40;;;;;;;;;;;;;;;;;;;;;
2022/02/05 04:40:26;;;;;;;4.78;3.03;;;;;;;2.34;85.83;100806.53;6275881;22;20019;-95
2022/02/05 04:48:47;;;;;;;8.32;3.28;;;;;;;2.16;86.43;100780.50;6274201;22;20327;-94
2022/02/05 04:56:58;;;;;;;10.50;3.10;;;;;;;2.17;87.90;100824.06;6275221;22;20026;-95
2022/02/05 05:04:49;;;;;;;7.15;3.72;;;;;;;2.20;87.68;100824.91;6276621;22;20049;-93
2022/02/05 05:10:25;;;;;;;9.85;4.32;;;;;;;2.35;87.37;100830.03;6276816;22;20516;-94
2022/02/05 05:13:11;;;;;;;8.25;3.97;;;;;;;2.30;87.83;100825.69;6250927;22;20022;-93
2022/02/05 05:21:20;;;;;;;8.38;4.15;;;;;;;1.96;87.74;100783.22;6275870;22;20023;-92
2022/02/05 05:23:49;;;;;;;10.57;3.90;;;;;;;2.14;88.13;100809.25;6280134;22;20042;-94
2022/02/05 05:26:20;;;;;;;8.63;3.38;;;;;;;1.99;87.33;100783.22;6282108;22;20026;-94
2022/02/05 05:28:49;;;;;;;10.25;3.63;;;;;;;1.98;87.79;100792.81;6282398;22;20043;-93
2022/02/05 05:31:18;;;;;;;9.38;4.15;;;;;;;2.05;86.77;100784.03;6277917;22;20012;-93
2022/02/05 05:33:50;;;;;;;8.77;4.53;;;;;;;1.98;86.75;100782.34;6275800;22;20016;-93
2022/02/05 05:36:18;;;;;;;;;;;;;;;2.35;86.91;100842.22;6275058;22;20024;-94
2022/02/05 05:39:02;;;;;;;10.02;3.90;;;;;;;1.98;87.63;100784.09;6273072;22;19919;-94
2022/02/05 05:41:36;;;;;;;9.10;3.78;;;;;;;2.06;87.77;100798.84;6276040;22;20015;-94
2022/02/05 05:46:52;;;;;;;5.75;3.17;;;;;;;2.00;87.05;100792.78;6273406;22;20473;-94
2022/02/05 05:49:22;;;;;;;8.60;3.42;;;;;;;1.97;87.50;100800.66;6274953;22;20054;-95
2022/02/05 05:51:53;;;;;;;7.75;3.78;;;;;;;1.95;87.20;100791.94;6274519;22;20027;-95
2022/02/05 05:54:24;;;;;;;7.65;3.20;;;;;;;2.14;87.02;100855.41;6247444;22;20486;-93
2022/02/05 05:57:00;;;;;;;10.47;3.80;;;;;;;1.85;87.70;100803.31;6291026;22;20011;-95
2022/02/05 05:59:31;;;;;;;10.75;3.88;;;;;;;2.18;87.66;100878.03;6292175;22;20050;-95
2022/02/05 06:02:09;;;;;;;8.65;3.65;;;;;;;1.91;88.18;100843.31;6270428;22;20011;-96
2022/02/05 06:04:46;;;;;;;7.60;3.42;;;;;;;2.15;88.14;100872.81;6294135;22;20019;-93
2022/02/05 06:07:15;;;;;;;6.57;3.42;;;;;;;1.79;87.98;100821.63;6289294;22;20077;-94
2022/02/05 06:09:44;;;;;;;8.45;3.55;;;;;;;1.83;88.67;100849.47;6282576;22;20024;-94
2022/02/05 06:12:16;;;;;;;13.30;3.58;;;;;;;1.62;89.18;100825.16;6284715;22;20030;-94
2022/02/05 06:15:02;;;;;;;;;;;;;;;;;;;;;
2022/02/05 06:17:37;;;;;;;6.85;3.55;;;;;;;1.61;89.62;100833.00;6288619;22;20095;-94
2022/02/05 06:20:10;;;;;;;10.40;3.50;;;;;;;1.70;89.76;100864.31;6281663;22;20015;-94
2022/02/05 06:22:42;;;;;;;7.25;3.75;;;;;;;1.56;89.74;100840.88;6280160;22;20019;-94
2022/02/05 06:25:11;;;;;;;7.47;4.00;;;;;;;1.74;90.53;100877.34;6278523;22;20016;-94
2022/02/05 06:27:41;;;;;;;8.57;3.92;;;;;;;1.64;90.10;100859.97;6276195;22;20022;-93
2022/02/05 06:30:12;;;;;;;9.38;3.78;;;;;;;1.67;90.20;100875.63;6251811;22;20053;-94
2022/02/05 06:32:43;;;;;;;9.25;3.88;;;;;;;1.89;90.36;100925.19;6229706;22;20019;-93
2022/02/05 06:35:21;;;;;;;11.98;4.28;;;;;;;1.53;90.63;100864.38;6279307;22;20492;-95
2022/02/05 06:37:51;;;;;;;7.05;3.83;;;;;;;1.86;90.94;100930.41;6279389;22;20016;-93
2022/02/05 06:40:20;;;;;;;8.43;4.28;;;;;;;1.51;90.31;100870.47;6279123;22;20382;-93
2022/02/05 06:42:50;;;;;;;8.65;4.38;;;;;;;1.78;90.88;100909.53;6277799;22;20018;-94
2022/02/05 06:45:18;;;;;;;12.88;3.97;;;;;;;1.83;90.21;100901.69;6274625;22;20047;-94
2022/02/05 06:47:47;;;;;;;5.82;3.40;;;;;;;1.58;90.48;100866.94;6274930;22;20028;-95
2022/02/05 06:50:15;;;;;;;7.03;3.75;;;;;;;1.75;89.06;100865.16;6294855;22;20059;-94
2022/02/05 06:52:45;;;;;;;12.50;3.88;;;;;;;1.98;89.25;100915.56;6299051;22;20027;-95
2022/02/05 06:55:15;;;;;;;9.55;4.15;;;;;;;1.90;89.29;100909.47;6300897;22;20007;-93
2022/02/05 06:57:45;;;;;;;10.38;3.85;;;;;;;1.80;89.55;100906.91;6285233;22;20059;-94
2022/02/05 07:00:14;;;;;;;9.38;3.95;;;;;;;2.07;89.13;100932.94;6282808;22;20339;-94
2022/02/05 07:02:50;;;;;;;10.40;3.67;;;;;;;1.80;88.93;100886.03;6280594;22;20026;-95
2022/02/05 07:05:18;;;;;;;8.45;3.85;;;;;;;1.86;88.45;100902.56;6281430;22;20016;-94
2022/02/05 07:07:48;;;;;;;9.00;3.95;;;;;;;2.15;89.11;100957.28;6279608;22;20020;-94
2022/02/05 07:10:15;;;;;;;11.27;3.55;;;;;;;1.76;89.08;100896.47;6280149;22;20023;-94
2022/02/05 07:13:00;;;;;;;10.02;3.78;;;;;;;2.05;88.68;100942.50;6277068;22;20022;-93
2022/02/05 07:15:35;;;;;;;10.82;3.92;;;;;;;1.98;89.12;100932.97;6255363;22;20026;-94
2022/02/05 07:20:46;;;;;;;9.48;4.13;;;;;;;1.92;89.56;100943.44;6281769;22;20427;-95
2022/02/05 07:32:13;;;;;;;9.60;4.07;;;;;;;2.19;89.47;100969.47;6280943;22;20057;-92
2022/02/05 07:45:07;;;;;;;9.02;4.22;;;;;;;2.27;88.50;100975.53;6280679;22;20039;-91
2022/02/05 07:47:35;;;;;;;10.15;3.90;;;;;;;2.35;87.93;100989.47;6280972;22;20085;-91
2022/02/05 07:50:02;;;;;;;8.52;4.45;;;;;;;2.38;88.44;100996.38;6279889;22;20043;-92
2022/02/05 07:52:30;;;;;;;8.10;4.15;;;;;;;2.24;87.98;100954.63;6274922;22;20035;-95
2022/02/05 07:58:55;;;;;;;8.13;4.15;;;;;;;2.44;88.23;100988.53;6283233;22;20063;-93
2022/02/05 08:01:25;;;;;;;7.88;3.97;;;;;;;2.28;88.11;100952.88;6277092;22;20577;-93
2022/02/05 08:03:54;;;;;;;;;;;;;;;2.61;87.16;101005.00;6279405;22;20262;-93
2022/02/05 08:06:26;;;;;;;11.68;4.45;;;;;;;2.29;87.67;100939.81;6282063;22;19923;-95
2022/02/05 08:08:57;;;;;;;8.73;4.50;;;;;;;2.53;86.78;100972.78;6274510;22;20490;-94
2022/02/05 08:11:38;;;;;;;11.25;4.80;;;;;;;2.42;86.80;100949.31;6275260;22;20027;-96
2022/02/05 08:14:09;;;;;;;12.80;4.50;;;;;;;2.59;85.91;100948.38;6276297;22;20034;-93
2022/02/05 08:19:08;;;;;;;11.15;4.15;;;;;;;2.72;84.96;100956.13;6269763;22;20126;-95
2022/02/05 08:21:36;;;;;;;8.07;4.13;;;;;;;2.92;84.71;100995.25;6272063;22;20019;-94
2022/02/05 08:24:05;;;;;;;8.55;4.20;;;;;;;2.81;84.42;100982.25;6274018;22;20028;-93
2022/02/05 08:26:32;;;;;;;11.48;4.25;;;;;;;2.95;84.50;100997.84;6273375;22;20043;-92
2022/02/05 08:29:01;;;;;;;12.40;4.57;;;;;;;3.25;84.05;101025.56;6268868;22;20418;-93
2022/02/05 08:31:28;;;;;;;8.00;4.07;;;;;;;3.28;83.67;100980.19;6272116;22;20099;-93
2022/02/05 08:33:59;;;;;;;10.50;4.10;;;;;;;3.87;81.40;101042.50;6275628;22;20027;-91
2022/02/05 08:36:38;;;;;;;13.05;4.72;;;;;;;3.89;80.75;100998.81;6273459;22;20550;-95
2022/02/05 08:39:20;;;;;;;;;;;;;;;;;;;;;
2022/02/05 08:41:47;;;;;;;16.25;6.50;;;;;;;4.25;76.81;100983.59;6282416;22;20616;-94
2022/02/05 08:44:17;;;;;;;13.18;6.30;;;;;;;4.48;75.97;100987.66;6274964;22;20039;-93
2022/02/05 08:46:47;;;;;;;;;;;;;;;4.85;75.33;101031.78;6274322;22;20011;-94
2022/02/05 08:49:21;;;;;;;21.45;10.48;;;;;;;4.80;75.00;101002.97;6275015;22;19915;-95
2022/02/05 08:51:48;;;;;;;25.67;13.30;;;;;;;4.77;73.50;100986.38;6275579;22;20020;-93
2022/02/05 08:54:15;;;;;;;18.38;9.15;;;;;;;4.96;73.71;101015.88;6273965;22;20042;-93
2022/02/05 08:57:05;;;;;;;11.50;5.63;;;;;;;5.22;73.61;101022.47;6274492;22;20019;-94
2022/02/05 08:59:45;;;;;;;11.35;5.05;;;;;;;5.01;72.76;101003.56;6271488;22;20035;-93
2022/02/05 09:02:19;;;;;;;7.57;3.88;;;;;;;5.35;71.48;101038.06;6249415;22;20600;-94
2022/02/05 09:04:54;;;;;;;10.23;3.92;;;;;;;5.26;70.70;101025.91;6274904;22;20040;-92
2022/02/05 09:07:37;;;;;;;10.88;4.68;;;;;;;4.83;72.48;101002.06;6272309;22;20020;-93
2022/02/05 09:10:12;;;;;;;9.32;5.15;;;;;;;4.67;73.25;101003.16;6248992;22;20046;-95
2022/02/05 09:15:08;;;;;;;12.75;5.70;;;;;;;4.54;75.28;101026.94;6276172;22;20016;-93
2022/02/05 09:17:35;;;;;;;11.90;5.78;;;;;;;4.29;75.75;101008.84;6273455;22;20102;-93
2022/02/05 09:20:18;;;;;;;10.38;5.65;;;;;;;4.25;76.32;101015.88;6159453;23;20029;-94
2022/02/05 09:22:47;;;;;;;9.55;4.43;;;;;;;4.56;76.65;101061.84;6191494;23;20087;-94
2022/02/05 09:25:20;;;;;;;10.93;4.45;;;;;;;4.45;75.34;101045.38;6196126;23;20076;-93
2022/02/05 09:27:52;;;;;;;8.45;4.05;;;;;;;4.41;76.14;101051.53;6164577;23;20115;-94
2022/02/05 09:30:43;;;;;;;8.25;4.20;;;;;;;4.26;76.03;101014.13;6191266;23;20126;-94
2022/02/05 09:33:11;;;;;;;11.30;4.30;;;;;;;4.71;75.29;101049.47;6168347;23;20515;-93
2022/02/05 09:35:38;;;;;;;12.50;4.43;;;;;;;5.28;73.55;101090.66;6189683;23;20017;-93
2022/02/05 09:38:19;;;;;;;;;;;;;;;5.51;71.96;101087.69;6185268;23;20025;-94
2022/02/05 09:40:46;;;;;;;11.50;4.40;;;;;;;5.46;70.68;101063.25;6186244;23;19916;-92
2022/02/05 09:43:13;;;;;;;9.48;4.25;;;;;;;5.69;71.53;101090.91;6184451;23;20091;-93
2022/02/05 09:45:40;;;;;;;7.95;4.07;;;;;;;5.77;70.74;101068.91;6185517;23;20013;-93
2022/02/05 09:48:08;;;;;;;10.48;3.90;;;;;;;5.99;68.85;101049.25;6157443;23;20025;-92
2022/02/05 09:50:49;;;;;;;8.60;3.70;;;;;;;6.39;66.95;101072.19;6194128;22;20032;-94
2022/02/05 09:53:20;;;;;;;8.82;3.65;;;;;;;6.34;66.16;101026.69;6281337;22;20075;-94
2022/02/05 09:55:49;;;;;;;5.47;3.20;;;;;;;6.90;64.30;101075.56;6280373;22;20031;-92
2022/02/05 09:58:18;;;;;;;10.32;3.45;;;;;;;6.93;62.27;101032.47;6251244;22;20024;-94
2022/02/05 10:01:10;;;;;;;4.88;2.75;;;;;;;7.45;61.60;101084.00;6279691;22;20069;-93
2022/02/05 10:03:45;;;;;;;7.45;3.50;;;;;;;7.09;63.05;101054.94;6284088;22;20511;-94
2022/02/05 10:06:19;;;;;;;9.35;3.10;;;;;;;7.26;62.08;101060.69;6279384;22;20612;-93
2022/02/05 10:08:58;;;;;;;6.70;2.75;;;;;;;7.22;62.24;101032.72;6276377;22;20019;-93
2022/02/05 10:11:29;;;;;;;6.63;2.90;;;;;;;7.80;61.16;101096.34;6279895;22;20016;-94
2022/02/05 10:14:21;;;;;;;7.38;3.33;;;;;;;7.59;60.28;101034.44;6277702;22;20091;-94
2022/02/05 10:16:52;;;;;;;7.05;2.95;;;;;;;7.51;60.04;101075.94;6281398;22;20470;-94
2022/02/05 10:19:21;;;;;;;7.80;3.00;;;;;;;7.03;60.90;101055.97;6279634;22;20484;-95
2022/02/05 10:22:03;;;;;;;8.02;3.08;;;;;;;6.80;62.16;101065.22;6276997;22;20109;-93
2022/02/05 10:24:31;;;;;;;7.93;3.35;;;;;;;6.74;63.08;101052.22;6278225;22;20063;-93
2022/02/05 10:27:04;;;;;;;7.85;2.45;;;;;;;6.72;63.44;101064.53;6278957;22;20023;-94
2022/02/05 10:29:39;;;;;;;6.97;2.70;;;;;;;6.39;63.00;101032.75;6249607;22;20027;-94
2022/02/05 10:32:23;;;;;;;8.38;2.63;;;;;;;6.56;63.35;101070.09;6277272;22;20012;-94
2022/02/05 10:37:32;;;;;;;4.60;2.33;;;;;;;6.32;63.71;101083.72;6277067;22;20043;-93
2022/02/05 10:45:15;;;;;;;7.43;2.70;;;;;;;5.88;64.71;101017.03;6274898;22;20382;-92
2022/02/05 10:47:56;;;;;;;5.95;2.53;;;;;;;5.91;65.17;101030.13;6275642;22;20024;-93
2022/02/05 10:50:27;;;;;;;5.88;2.83;;;;;;;6.05;65.61;101063.19;6275772;22;20026;-94
2022/02/05 10:53:04;;;;;;;8.93;2.60;;;;;;;5.95;65.48;101039.69;6276422;22;20099;-93
2022/02/05 10:55:43;;;;;;;6.97;2.85;;;;;;;6.07;65.53;101061.41;6276905;22;20024;-94
2022/02/05 11:05:57;;;;;;;8.18;2.85;;;;;;;5.68;65.71;101032.25;6285390;22;20067;-94
2022/02/05 11:08:25;;;;;;;5.35;2.35;;;;;;;5.87;65.46;101048.56;6281898;22;20023;-94
2022/02/05 11:18:56;;;;;;;5.25;2.20;;;;;;;6.51;62.79;101078.97;6275011;22;20011;-93
2022/02/05 11:21:44;;;;;;;6.10;2.45;;;;;;;6.59;62.88;101067.44;6278000;22;20050;-94
2022/02/05 11:24:13;;;;;;;5.85;2.20;;;;;;;6.41;61.41;101012.53;6250313;22;20018;-94
2022/02/05 11:26:45;;;;;;;6.47;2.50;;;;;;;6.65;60.71;101077.81;6276388;22;20024;-95
2022/02/05 11:29:29;;;;;;;6.85;2.30;;;;;;;6.62;60.00;101077.88;6274038;22;20031;-94
2022/02/05 11:32:21;;;;;;;7.32;2.30;;;;;;;6.72;60.98;101088.22;6274505;22;20024;-93
2022/02/05 11:35:12;;;;;;;6.18;2.35;;;;;;;6.39;61.16;101035.38;6276384;22;20016;-95
2022/02/05 11:38:09;;;;;;;7.07;2.63;;;;;;;6.46;61.66;101022.94;6279958;22;20027;-94
2022/02/05 11:41:09;;;;;;;11.85;2.78;;;;;;;7.00;60.42;101094.66;6236535;22;20081;-96
2022/02/05 11:43:47;;;;;;;7.82;2.70;;;;;;;6.82;59.92;101072.19;6280471;22;20012;-94
2022/02/05 11:46:21;;;;;;;6.88;2.47;;;;;;;6.65;60.67;101035.69;6283491;22;20031;-96
2022/02/05 11:48:57;;;;;;;6.70;2.83;;;;;;;6.75;60.84;101061.84;6292683;22;20015;-94
2022/02/05 11:51:46;;;;;;;6.80;2.83;;;;;;;6.73;60.47;101053.13;6290349;22;20015;-96
2022/02/05 11:54:16;;;;;;;5.20;2.20;;;;;;;6.73;60.24;101030.28;6292431;22;20016;-93
2022/02/05 11:57:02;;;;;;;7.45;1.90;;;;;;;6.97;60.12;101089.44;6283373;22;20503;-93
2022/02/05 11:59:50;;;;;;;4.40;2.10;;;;;;;6.60;60.45;101036.72;6283485;22;20024;-96
2022/02/05 12:02:39;;;;;;;6.07;2.17;;;;;;;7.03;60.76;101070.88;6276534;22;20074;-95
2022/02/05 12:05:14;;;;;;;5.45;2.42;;;;;;;7.06;60.48;101056.78;6286192;22;20031;-94
2022/02/05 12:08:06;;;;;;;6.78;2.00;;;;;;;7.29;60.12;101073.81;6286329;22;20030;-93
2022/02/05 12:10:49;;;;;;;10.77;2.58;;;;;;;7.00;60.26;101049.88;6283155;22;20031;-93
2022/02/05 12:13:36;;;;;;;6.05;2.33;;;;;;;6.79;61.08;101045.06;6290587;22;20386;-96
2022/02/05 12:16:06;;;;;;;7.03;2.80;;;;;;;6.85;60.74;101048.44;6293748;22;20064;-94
2022/02/05 12:19:15;;;;;;;9.45;2.42;;;;;;;6.71;61.11;101039.97;6292694;22;20094;-94
2022/02/05 12:21:56;;;;;;;5.20;2.28;;;;;;;6.84;61.24;101056.38;6292183;22;20053;-94
2022/02/05 12:24:41;;;;;;;6.55;2.38;;;;;;;6.94;60.87;101042.97;6266226;22;20019;-94
2022/02/05 12:27:36;;;;;;;8.07;2.58;;;;;;;7.04;61.43;101047.16;6278933;22;20004;-95
2022/02/05 12:30:38;;;;;;;5.10;1.90;;;;;;;7.25;59.74;101050.19;6274607;22;20019;-92
2022/02/05 12:33:08;;;;;;;7.22;2.40;;;;;;;7.30;60.19;101049.19;6250080;22;20039;-94
2022/02/05 12:35:37;;;;;;;6.43;2.28;;;;;;;7.49;59.83;101052.25;6249600;22;20447;-94
2022/02/05 12:38:07;;;;;;;10.10;2.80;;;;;;;7.62;59.39;101035.25;6276882;22;20031;-96
2022/02/05 12:40:49;;;;;;;6.10;2.10;;;;;;;7.70;59.00;101025.41;6273538;22;20034;-94
2022/02/05 12:43:19;;;;;;;7.50;2.42;;;;;;;7.60;59.12;100991.38;6278164;22;20011;-95
2022/02/05 12:45:56;;;;;;;7.03;2.40;;;;;;;7.48;58.56;100979.38;6277841;22;20087;-94
2022/02/05 12:48:28;;;;;;;7.15;2.50;;;;;;;7.68;59.13;101016.66;6275870;22;20012;-95
2022/02/05 12:50:57;;;;;;;5.15;2.50;;;;;;;7.62;58.73;100973.75;6247752;22;20023;-95
2022/02/05 12:53:39;;;;;;;8.85;2.00;;;;;;;7.84;58.34;101006.59;6275241;22;20015;-94
2022/02/05 12:56:17;;;;;;;4.70;1.90;;;;;;;8.05;57.48;101011.28;6249896;22;20042;-95
2022/02/05 12:59:03;;;;;;;6.28;2.72;;;;;;;8.37;56.38;101004.28;6275265;22;20019;-94
2022/02/05 13:01:31;;;;;;;5.55;2.00;;;;;;;8.49;56.49;101011.00;6275019;22;20023;-94
2022/02/05 13:04:16;;;;;;;6.50;2.50;;;;;;;8.36;56.56;100974.38;6274458;22;20396;-93
2022/02/05 13:06:47;;;;;;;4.28;2.08;;;;;;;8.51;56.04;100988.03;6273924;22;20020;-95
2022/02/05 13:09:22;;;;;;;7.05;2.35;;;;;;;8.55;55.02;100981.78;6273085;22;20474;-93
2022/02/05 13:12:00;;;;;;;5.18;1.65;;;;;;;8.49;54.76;100976.69;6249222;22;20518;-92
2022/02/05 13:14:34;;;;;;;5.47;1.95;;;;;;;8.59;53.89;100955.25;6274764;22;20370;-93
2022/02/05 13:17:01;;;;;;;6.28;1.70;;;;;;;8.41;53.72;100934.69;6274800;22;20024;-92
2022/02/05 13:19:49;;;;;;;6.75;1.50;;;;;;;8.43;54.06;100980.38;6275262;22;20031;-94
2022/02/05 13:25:42;;;;;;;6.32;2.05;;;;;;;8.37;53.92;100939.16;6277998;22;20111;-92
2022/02/05 13:28:10;;;;;;;4.10;1.63;;;;;;;8.45;53.42;100975.91;6280348;22;20015;-95
2022/02/05 13:33:46;;;;;;;4.10;1.65;;;;;;;8.51;54.02;100981.00;6278242;22;20027;-93
2022/02/05 13:36:23;;;;;;;3.88;1.55;;;;;;;8.46;53.96;100998.75;6249212;22;20008;-93
2022/02/05 13:41:54;;;;;;;4.22;1.38;;;;;;;8.40;53.65;100988.38;6257553;22;20346;-92
2022/02/05 13:44:24;;;;;;;4.95;1.58;;;;;;;8.11;54.28;100975.97;6282112;22;20083;-94
2022/02/05 13:47:11;;;;;;;4.32;1.50;;;;;;;8.37;54.08;100989.31;6279571;22;20035;-93
2022/02/05 13:49:42;;;;;;;4.20;1.50;;;;;;;8.62;52.51;101000.03;6279438;22;20493;-93
2022/02/05 13:52:14;;;;;;;3.53;1.40;;;;;;;8.39;52.26;100999.81;6280046;22;20505;-93
2022/02/05 13:54:43;;;;;;;5.65;1.75;;;;;;;7.89;53.17;100946.66;6282759;22;20451;-92
2022/02/05 13:57:12;;;;;;;3.78;1.45;;;;;;;7.77;53.05;100975.13;6280157;22;20027;-93
2022/02/05 13:59:39;;;;;;;3.97;1.58;;;;;;;7.55;54.09;100980.09;6282327;22;20015;-93
2022/02/05 14:02:16;;;;;;;5.22;1.60;;;;;;;7.69;53.34;101001.72;6280634;22;20019;-93
2022/02/05 14:04:46;;;;;;;5.63;1.77;;;;;;;7.48;54.43;100975.88;6278416;22;20023;-95
2022/02/05 14:07:13;;;;;;;7.28;1.70;;;;;;;7.45;53.95;100995.25;6281405;22;20015;-95
2022/02/05 14:09:40;;;;;;;4.18;1.85;;;;;;;7.36;54.05;100987.59;6281222;22;20049;-93
2022/02/05 14:12:20;;;;;;;5.43;2.35;;;;;;;7.30;54.85;101003.53;6254440;22;20031;-93
2022/02/05 14:15:02;;;;;;;4.35;1.92;;;;;;;7.19;55.41;100988.00;6283202;22;20105;-93
2022/02/05 14:17:32;;;;;;;4.15;1.80;;;;;;;7.32;55.39;100999.97;6286798;22;20094;-93
2022/02/05 14:20:10;;;;;;;4.70;1.70;;;;;;;7.32;55.69;100996.47;6283061;22;20414;-94
2022/02/05 14:22:38;;;;;;;6.93;2.17;;;;;;;7.13;56.07;100989.91;6283047;22;20428;-93
2022/02/05 14:25:33;;;;;;;4.68;1.83;;;;;;;7.16;56.10;100995.97;6280878;22;20026;-93
2022/02/05 14:28:24;;;;;;;6.32;2.10;;;;;;;6.98;55.87;100949.00;6280973;22;20567;-93
2022/02/05 14:31:04;;;;;;;5.72;2.47;;;;;;;6.95;56.41;100949.06;6279882;22;20344;-93
2022/02/05 14:33:43;;;;;;;6.03;1.95;;;;;;;6.93;57.56;100979.81;6280180;22;20023;-93
2022/02/05 14:41:45;;;;;;;6.35;2.30;;;;;;;6.82;57.95;101002.88;6278278;22;20046;-93
2022/02/05 14:44:18;;;;;;;7.28;1.70;;;;;;;6.80;58.09;101002.06;6276597;22;20024;-93
2022/02/05 14:46:45;;;;;;;3.72;1.95;;;;;;;6.68;57.71;100972.47;6278576;22;20026;-92
2022/02/05 14:49:13;;;;;;;4.63;1.80;;;;;;;6.50;58.13;100969.38;6277820;22;20107;-93
2022/02/05 14:51:42;;;;;;;5.88;2.15;;;;;;;6.31;58.39;100972.38;6279130;22;20027;-92
2022/02/05 14:54:09;;;;;;;5.22;2.30;;;;;;;6.61;58.87;101007.72;6281578;22;20099;-93
2022/02/05 14:56:43;;;;;;;6.45;1.90;;;;;;;6.40;59.52;100984.50;6280671;22;20019;-94
2022/02/05 14:59:17;;;;;;;7.82;2.53;;;;;;;6.30;59.75;100972.41;6278845;22;20020;-93
2022/02/05 15:01:49;;;;;;;7.75;2.10;;;;;;;6.55;59.40;101006.97;6281012;22;20066;-95
2022/02/05 15:04:16;;;;;;;4.18;1.80;;;;;;;6.31;59.74;100963.63;6282282;22;20024;-92
2022/02/05 15:06:47;;;;;;;4.30;2.20;;;;;;;6.57;60.20;100999.94;6280660;22;20023;-93